Time;durP1;ratioP1;P1;durP2;ratioP2;P2;SDS_P1;SDS_P2;PMS_P1;PMS_P2;Temp;Humidity;BMP_temperature;BMP_pressure;BME280_temperature;BME280_humidity;BME280_pressure;Samples;Min_cycle;Max_cycle;Signal;HPM_P1;HPM_P2
2023/12/19 00:01:05;;;;;;;;;;;;;;;1.86;69.80;100769.41;5032048;28;19913;-77
2023/12/19 00:03:31;;;;;;;;;;;;;;;1.85;70.25;100771.19;5031878;28;19920;-77
2023/12/19 00:05:56;;;;;;;;;;;;;;;1.85;70.57;100776.41;5031989;28;19918;-77
2023/12/19 00:08:21;;;;;;;;;;;;;;;1.86;69.91;100775.47;5014174;28;19917;-77
2023/12/19 00:10:47;;;;;;;;;;;;;;;1.80;70.00;100785.41;5031940;28;19944;-77
2023/12/19 00:13:12;;;;;;;;;;;;;;;1.78;70.07;100787.25;5031808;28;19936;-77
2023/12/19 00:15:38;;;;;;;;;;;;;;;1.77;70.43;100788.19;5031869;28;19913;-77
2023/12/19 00:18:03;;;;;;;;;;;;;;;1.75;70.28;100788.28;5031826;28;19953;-77
2023/12/19 00:20:29;;;;;;;;;;;;;;;1.73;70.09;100786.72;5031885;28;19951;-77
2023/12/19 00:22:54;;;;;;;;;;;;;;;1.75;70.44;100783.09;5031498;28;20436;-77
2023/12/19 00:25:20;;;;;;;;;;;;;;;1.78;70.62;100772.47;5031598;28;19921;-77
2023/12/19 00:27:45;;;;;;;;;;;;;;;1.78;70.40;100784.66;5033311;28;19913;-77
2023/12/19 00:30:10;;;;;;;;;;;;;;;1.71;70.46;100776.38;5032916;28;19920;-77
2023/12/19 00:32:36;;;;;;;;;;;;;;;1.74;70.54;100776.19;5032960;28;19939;-77
2023/12/19 00:35:01;;;;;;;;;;;;;;;1.74;70.46;100781.41;5033229;28;19913;-77
2023/12/19 00:37:26;;;;;;;;;;;;;;;1.76;70.69;100782.16;5032959;28;19940;-77
2023/12/19 00:39:51;;;;;;;;;;;;;;;1.78;70.27;100782.91;5033472;28;19920;-77
2023/12/19 00:42:17;;;;;;;;;;;;;;;1.78;70.36;100779.47;5039766;28;20398;-77
2023/12/19 00:44:42;;;;;;;;;;;;;;;1.78;70.44;100787.25;5041739;28;19936;-78
2023/12/19 00:47:09;;;;;;;;;;;;;;;1.75;70.04;100790.06;5036095;28;19913;-77
2023/12/19 00:49:34;;;;;;;;;;;;;;;1.77;70.51;100783.00;5036104;28;19913;-77
2023/12/19 00:52:00;;;;;;;;;;;;;;;1.79;70.46;100776.75;5035846;28;19967;-77
2023/12/19 00:54:25;;;;;;;;;;;;;;;1.78;70.31;100779.47;5018275;28;19917;-77
2023/12/19 00:56:50;;;;;;;;;;;;;;;1.78;69.91;100774.25;5035374;28;19913;-77
2023/12/19 00:59:16;;;;;;;;;;;;;;;1.76;70.32;100768.28;5017565;28;20026;-77
2023/12/19 01:01:41;;;;;;;;;;;;;;;1.76;69.77;100765.69;5035096;28;19920;-77
2023/12/19 01:04:08;;;;;;;;;;;;;;;1.68;70.00;100758.34;5017217;28;19949;-77
2023/12/19 01:06:35;;;;;;;;;;;;;;;1.66;70.26;100749.78;5017302;28;20309;-77
2023/12/19 01:09:00;;;;;;;;;;;;;;;1.68;70.35;100747.09;5034908;28;19913;-77
2023/12/19 01:11:25;;;;;;;;;;;;;;;1.68;70.09;100745.31;5017701;28;20420;-78
2023/12/19 01:13:51;;;;;;;;;;;;;;;1.69;70.57;100748.75;5036244;28;19987;-78
2023/12/19 01:16:16;;;;;;;;;;;;;;;1.69;70.30;100753.97;5018361;28;19913;-77
2023/12/19 01:18:41;;;;;;;;;;;;;;;1.69;69.98;100751.38;5035832;28;19953;-77
2023/12/19 01:21:06;;;;;;;;;;;;;;;1.68;70.21;100745.31;5035791;28;19913;-77
2023/12/19 01:23:32;;;;;;;;;;;;;;;1.69;70.23;100744.41;5036397;28;19917;-77
2023/12/19 01:25:57;;;;;;;;;;;;;;;1.66;69.94;100743.75;5035660;28;19952;-78
2023/12/19 01:28:22;;;;;;;;;;;;;;;1.68;69.94;100736.69;5034816;28;19913;-77
2023/12/19 01:30:48;;;;;;;;;;;;;;;1.69;70.09;100733.16;5034973;28;20388;-77
2023/12/19 01:33:13;;;;;;;;;;;;;;;1.69;70.20;100731.38;5016789;28;20370;-77
2023/12/19 01:35:38;;;;;;;;;;;;;;;1.71;70.20;100724.31;5034657;28;19917;-77
2023/12/19 01:38:03;;;;;;;;;;;;;;;1.71;70.36;100732.13;5034418;28;20453;-77
2023/12/19 01:40:31;;;;;;;;;;;;;;;1.70;69.80;100729.63;5034770;28;19963;-77
2023/12/19 01:42:56;;;;;;;;;;;;;;;1.68;69.89;100727.09;5035933;28;19913;-77
2023/12/19 01:45:22;;;;;;;;;;;;;;;1.59;70.00;100727.66;5018485;28;19924;-77
2023/12/19 01:47:47;;;;;;;;;;;;;;;1.57;70.56;100724.31;5018036;28;19956;-77
2023/12/19 01:50:16;;;;;;;;;;;;;;;1.60;70.50;100724.13;5018033;28;20406;-78
2023/12/19 01:52:43;;;;;;;;;;;;;;;1.64;70.40;100722.16;5035578;28;19913;-77
2023/12/19 01:55:09;;;;;;;;;;;;;;;1.61;70.06;100715.38;5035691;28;19919;-78
2023/12/19 01:57:35;;;;;;;;;;;;;;;1.63;70.51;100710.94;5034406;28;20388;-78
2023/12/19 02:00:00;;;;;;;;;;;;;;;1.64;70.25;100717.81;5016370;28;19991;-78
2023/12/19 02:02:26;;;;;;;;;;;;;;;1.64;70.44;100722.16;5034324;28;19935;-78
2023/12/19 02:04:52;;;;;;;;;;;;;;;1.63;70.10;100710.94;5034100;28;20345;-78
2023/12/19 02:07:18;;;;;;;;;;;;;;;1.58;70.13;100715.56;5033986;28;19935;-78
2023/12/19 02:09:43;;;;;;;;;;;;;;;1.54;70.44;100724.50;5033862;28;20453;-78
2023/12/19 02:12:08;;;;;;;;;;;;;;;1.54;70.35;100719.28;5034138;28;19913;-78
2023/12/19 02:14:34;;;;;;;;;;;;;;;1.50;70.31;100723.00;5016175;28;19913;-78
2023/12/19 02:16:59;;;;;;;;;;;;;;;1.49;70.11;100716.13;5033938;28;19913;-78
2023/12/19 02:19:25;;;;;;;;;;;;;;;1.50;70.52;100712.59;5033760;28;19914;-78
2023/12/19 02:21:50;;;;;;;;;;;;;;;1.53;70.53;100717.63;5033776;28;19953;-78
2023/12/19 02:24:15;;;;;;;;;;;;;;;1.56;70.17;100728.69;5033902;28;19913;-78
2023/12/19 02:26:41;;;;;;;;;;;;;;;1.53;69.77;100720.22;5034540;28;19989;-78
2023/12/19 02:29:06;;;;;;;;;;;;;;;1.53;70.48;100712.41;5034992;28;19951;-78
2023/12/19 02:31:31;;;;;;;;;;;;;;;1.51;70.04;100709.06;5017263;28;19924;-78
2023/12/19 02:33:57;;;;;;;;;;;;;;;1.52;70.39;100702.94;5034674;28;19936;-78
2023/12/19 02:36:23;;;;;;;;;;;;;;;1.55;70.14;100702.75;5034705;28;20306;-78
2023/12/19 02:38:48;;;;;;;;;;;;;;;1.58;70.47;100708.59;5033863;28;19928;-78
2023/12/19 02:41:13;;;;;;;;;;;;;;;1.57;69.76;100712.13;5034196;28;19913;-78
2023/12/19 02:43:39;;;;;;;;;;;;;;;1.56;70.34;100722.63;5015842;28;20417;-78
2023/12/19 02:46:04;;;;;;;;;;;;;;;1.52;69.98;100723.75;5033465;28;19969;-79
2023/12/19 02:48:29;;;;;;;;;;;;;;;1.50;70.47;100720.41;5033389;28;19987;-79
2023/12/19 02:50:55;;;;;;;;;;;;;;;1.49;70.67;100721.31;5015917;28;19920;-79
2023/12/19 02:53:20;;;;;;;;;;;;;;;1.52;70.50;100711.56;5034374;28;19913;-79
2023/12/19 02:55:45;;;;;;;;;;;;;;;1.50;70.24;100707.38;5016139;28;19966;-79
2023/12/19 02:58:10;;;;;;;;;;;;;;;1.50;70.64;100704.78;5034551;28;19913;-79
2023/12/19 03:00:36;;;;;;;;;;;;;;;1.52;70.63;100702.94;5017255;28;19960;-79
2023/12/19 03:03:01;;;;;;;;;;;;;;;1.55;70.12;100700.13;5017274;28;20004;-79
2023/12/19 03:05:26;;;;;;;;;;;;;;;1.57;69.92;100703.50;5034961;28;19917;-79
2023/12/19 03:07:52;;;;;;;;;;;;;;;1.56;70.09;100702.66;5017485;28;19928;-79
2023/12/19 03:10:17;;;;;;;;;;;;;;;1.49;70.05;100696.13;5035177;28;19996;-79
2023/12/19 03:12:42;;;;;;;;;;;;;;;1.48;69.95;100691.84;5035662;28;19913;-79
2023/12/19 03:15:08;;;;;;;;;;;;;;;1.45;69.55;100693.78;5035344;28;19909;-79
2023/12/19 03:17:33;;;;;;;;;;;;;;;1.39;69.49;100699.34;5017592;28;19936;-79
2023/12/19 03:19:58;;;;;;;;;;;;;;;1.27;69.30;100701.75;5033651;28;20383;-79
2023/12/19 03:22:24;;;;;;;;;;;;;;;1.23;69.79;100704.63;5033425;28;19913;-79
2023/12/19 03:24:49;;;;;;;;;;;;;;;1.20;69.23;100700.44;5034878;28;19920;-79
2023/12/19 03:27:14;;;;;;;;;;;;;;;1.17;69.39;100700.63;5017705;28;20071;-79
2023/12/19 03:29:39;;;;;;;;;;;;;;;1.22;69.81;100705.56;5035286;28;19905;-79
2023/12/19 03:32:07;;;;;;;;;;;;;;;1.18;69.35;100706.66;5016245;28;19917;-79
2023/12/19 03:34:32;;;;;;;;;;;;;;;1.15;69.47;100709.44;5018107;28;20306;-79
2023/12/19 03:36:57;;;;;;;;;;;;;;;1.12;69.70;100700.06;5036077;28;19923;-79
2023/12/19 03:39:23;;;;;;;;;;;;;;;1.14;70.08;100699.97;5018271;28;19913;-79
2023/12/19 03:41:49;;;;;;;;;;;;;;;1.11;70.09;100700.97;5018171;28;19913;-79
2023/12/19 03:44:15;;;;;;;;;;;;;;;1.02;69.54;100706.72;5017496;28;20314;-79
2023/12/19 03:46:40;;;;;;;;;;;;;;;1.03;69.99;100707.56;5017222;28;19917;-79
2023/12/19 03:49:05;;;;;;;;;;;;;;;1.03;69.97;100713.59;5017617;28;19917;-79
2023/12/19 03:51:31;;;;;;;;;;;;;;;1.08;70.20;100714.16;5035474;28;19919;-79
2023/12/19 03:53:56;;;;;;;;;;;;;;;1.10;69.86;100703.66;5035541;28;19920;-79
2023/12/19 03:56:21;;;;;;;;;;;;;;;1.04;69.75;100691.84;5036714;28;20383;-79
2023/12/19 03:58:47;;;;;;;;;;;;;;;1.07;69.88;100694.28;5037732;28;19920;-79
2023/12/19 04:01:12;;;;;;;;;;;;;;;1.08;69.67;100697.72;5037289;28;19917;-79
2023/12/19 04:03:38;;;;;;;;;;;;;;;1.02;69.71;100687.69;5038424;28;19913;-79
2023/12/19 04:06:03;;;;;;;;;;;;;;;1.06;69.84;100696.97;5038585;28;19964;-79
2023/12/19 04:08:28;;;;;;;;;;;;;;;1.08;69.86;100695.97;5020733;28;19913;-79
2023/12/19 04:10:54;;;;;;;;;;;;;;;1.11;69.88;100690.56;5038530;28;20370;-79
2023/12/19 04:13:19;;;;;;;;;;;;;;;1.11;69.97;100687.97;5038195;28;19913;-80
2023/12/19 04:15:44;;;;;;;;;;;;;;;1.13;69.87;100688.72;5019767;28;19913;-79
2023/12/19 04:18:10;;;;;;;;;;;;;;;1.12;69.71;100696.63;5024531;28;19913;-79
2023/12/19 04:20:35;;;;;;;;;;;;;;;1.11;70.10;100700.13;5042916;28;19913;-79
2023/12/19 04:23:00;;;;;;;;;;;;;;;1.13;69.81;100700.88;5040761;28;19920;-79
2023/12/19 04:25:26;;;;;;;;;;;;;;;1.13;69.70;100693.09;5041371;28;19924;-80
2023/12/19 04:27:51;;;;;;;;;;;;;;;1.07;69.95;100688.25;5042479;28;20373;-79
2023/12/19 04:30:16;;;;;;;;;;;;;;;1.07;70.00;100690.84;5042350;28;19913;-79
2023/12/19 04:32:41;;;;;;;;;;;;;;;1.08;70.09;100690.75;5024653;28;19917;-79
2023/12/19 04:35:07;;;;;;;;;;;;;;;1.10;69.77;100686.31;5025196;28;19913;-79
2023/12/19 04:37:32;;;;;;;;;;;;;;;1.12;69.94;100687.06;5041880;28;20291;-79
2023/12/19 04:39:57;;;;;;;;;;;;;;;1.12;69.95;100687.06;5043121;28;19920;-79
2023/12/19 04:42:23;;;;;;;;;;;;;;;1.12;69.45;100678.41;5043364;28;19913;-79
2023/12/19 04:44:49;;;;;;;;;;;;;;;1.09;69.45;100678.59;5024694;28;19956;-79
2023/12/19 04:47:14;;;;;;;;;;;;;;;1.08;69.73;100682.94;5042600;28;19917;-80
2023/12/19 04:49:40;;;;;;;;;;;;;;;1.11;69.56;100680.16;5043135;28;20394;-79
2023/12/19 04:52:05;;;;;;;;;;;;;;;1.11;69.58;100685.38;5043610;28;20000;-79
2023/12/19 04:54:30;;;;;;;;;;;;;;;1.11;69.66;100695.78;5043619;28;19919;-79
2023/12/19 04:56:56;;;;;;;;;;;;;;;1.13;69.60;100700.88;5043401;28;19917;-79
2023/12/19 04:59:21;;;;;;;;;;;;;;;1.11;68.79;100700.97;5043950;28;19923;-79
2023/12/19 05:01:46;;;;;;;;;;;;;;;1.08;69.10;100706.38;5043179;28;19913;-80
2023/12/19 05:04:12;;;;;;;;;;;;;;;1.05;69.03;100713.50;5043144;28;19972;-79
2023/12/19 05:06:37;;;;;;;;;;;;;;;1.02;68.97;100706.72;5043721;28;19917;-79
2023/12/19 05:09:02;;;;;;;;;;;;;;;0.92;68.83;100708.16;5042856;28;20396;-79
2023/12/19 05:11:28;;;;;;;;;;;;;;;0.81;68.91;100706.19;5023824;28;19913;-79
2023/12/19 05:13:53;;;;;;;;;;;;;;;0.84;69.38;100705.19;5040709;28;19913;-79
2023/12/19 05:16:19;;;;;;;;;;;;;;;0.82;69.15;100712.22;5041630;28;19928;-81
2023/12/19 05:18:45;;;;;;;;;;;;;;;0.79;69.49;100721.03;5040020;28;20058;-79
2023/12/19 05:21:11;;;;;;;;;;;;;;;0.79;69.19;100717.59;5039949;28;19914;-79
2023/12/19 05:23:36;;;;;;;;;;;;;;;0.74;69.18;100714.41;5023011;28;20306;-79
2023/12/19 05:26:06;;;;;;;;;;;;;;;0.75;69.82;100724.72;5023427;28;19984;-79
2023/12/19 05:28:31;;;;;;;;;;;;;;;0.80;69.74;100722.72;5040517;28;19913;-79
2023/12/19 05:30:57;;;;;;;;;;;;;;;0.85;69.83;100725.03;5043382;28;19914;-79
2023/12/19 05:33:29;;;;;;;;;;;;;;;0.83;69.77;100722.53;5028207;28;19925;-79
2023/12/19 05:35:55;;;;;;;;;;;;;;;0.87;69.71;100716.25;5025598;28;19935;-79
2023/12/19 05:38:20;;;;;;;;;;;;;;;0.90;69.39;100715.22;5041869;28;19964;-79
2023/12/19 05:40:46;;;;;;;;;;;;;;;0.95;69.54;100718.41;5043071;28;19971;-79
2023/12/19 05:43:14;;;;;;;;;;;;;;;0.95;69.76;100711.44;5042756;28;19955;-79
2023/12/19 05:45:40;;;;;;;;;;;;;;;0.96;69.25;100709.66;5043708;28;19924;-79
2023/12/19 05:48:05;;;;;;;;;;;;;;;0.96;69.48;100712.28;5025071;28;19917;-79
2023/12/19 05:50:31;;;;;;;;;;;;;;;0.99;69.34;100716.47;5042517;28;20409;-79
2023/12/19 05:52:56;;;;;;;;;;;;;;;0.98;69.23;100719.97;5042981;28;19921;-79
2023/12/19 05:55:22;;;;;;;;;;;;;;;1.03;69.60;100715.34;5042442;28;19976;-80
2023/12/19 05:57:47;;;;;;;;;;;;;;;1.04;69.15;100715.25;5042764;28;19969;-80
2023/12/19 06:00:13;;;;;;;;;;;;;;;1.06;69.36;100722.97;5026150;28;19917;-80
2023/12/19 06:02:38;;;;;;;;;;;;;;;1.10;68.88;100732.28;5042906;28;19913;-80
2023/12/19 06:05:07;;;;;;;;;;;;;;;1.14;69.50;100725.97;5043226;28;19959;-80
2023/12/19 06:07:38;;;;;;;;;;;;;;;1.17;69.77;100726.63;5050480;28;19928;-80
2023/12/19 06:10:08;;;;;;;;;;;;;;;1.20;69.45;100734.25;5050316;28;19913;-79
2023/12/19 06:12:33;;;;;;;;;;;;;;;1.25;69.56;100732.22;5043079;28;19906;-79
2023/12/19 06:14:59;;;;;;;;;;;;;;;1.28;69.24;100733.81;5025492;28;19979;-79
2023/12/19 06:17:24;;;;;;;;;;;;;;;1.36;69.36;100741.16;5043205;28;19919;-79
2023/12/19 06:19:49;;;;;;;;;;;;;;;1.39;69.06;100731.41;5043236;28;20378;-79
2023/12/19 06:22:14;;;;;;;;;;;;;;;1.43;69.39;100732.91;5042533;28;19913;-80
2023/12/19 06:24:40;;;;;;;;;;;;;;;1.45;68.88;100732.81;5024179;28;19920;-80
2023/12/19 06:27:05;;;;;;;;;;;;;;;1.48;68.91;100735.22;5029289;28;19925;-80
2023/12/19 06:29:30;;;;;;;;;;;;;;;1.44;68.71;100728.53;5024475;28;20464;-80
2023/12/19 06:31:56;;;;;;;;;;;;;;;1.46;69.14;100732.72;5024964;28;21000;-80
2023/12/19 06:34:21;;;;;;;;;;;;;;;1.50;69.11;100731.66;5024843;28;19917;-80
2023/12/19 06:36:46;;;;;;;;;;;;;;;1.51;69.22;100727.28;5029343;28;19920;-80
2023/12/19 06:39:11;;;;;;;;;;;;;;;1.54;69.23;100734.91;5061331;28;19975;-80
2023/12/19 06:41:37;;;;;;;;;;;;;;;1.57;69.38;100734.72;5041287;28;20456;-80
2023/12/19 06:44:02;;;;;;;;;;;;;;;1.61;69.26;100736.22;5061800;28;19939;-80
2023/12/19 06:46:27;;;;;;;;;;;;;;;1.64;69.52;100729.97;5061102;28;19940;-80
2023/12/19 06:48:53;;;;;;;;;;;;;;;1.66;69.62;100728.97;5053293;28;19917;-80
2023/12/19 06:51:27;;;;;;;;;;;;;;;1.72;69.33;100731.19;5022443;28;19948;-80
2023/12/19 06:53:54;;;;;;;;;;;;;;;1.78;69.32;100730.81;5026528;28;19921;-79
2023/12/19 06:56:19;;;;;;;;;;;;;;;1.82;69.12;100728.88;5042411;28;20279;-80
2023/12/19 06:58:44;;;;;;;;;;;;;;;1.83;69.17;100733.16;5051691;28;19939;-80
2023/12/19 07:01:10;;;;;;;;;;;;;;;1.85;69.06;100724.31;5052451;28;19920;-80
2023/12/19 07:03:35;;;;;;;;;;;;;;;1.88;69.44;100728.50;5040739;28;19913;-80
2023/12/19 07:06:00;;;;;;;;;;;;;;;1.89;69.00;100728.41;5022880;28;19917;-80
2023/12/19 07:08:26;;;;;;;;;;;;;;;1.95;68.96;100736.78;5042543;28;20322;-81
2023/12/19 07:10:54;;;;;;;;;;;;;;;2.02;69.22;100743.28;5026118;28;19913;-81
2023/12/19 07:13:19;;;;;;;;;;;;;;;2.04;68.74;100734.44;5026762;28;20369;-81
2023/12/19 07:15:45;;;;;;;;;;;;;;;2.06;69.05;100735.19;5040710;28;19913;-80
2023/12/19 07:18:11;;;;;;;;;;;;;;;2.08;68.59;100738.53;5041343;28;19921;-79
2023/12/19 07:20:36;;;;;;;;;;;;;;;2.16;68.85;100738.06;5038381;28;19920;-80
2023/12/19 07:23:02;;;;;;;;;;;;;;;2.22;68.66;100740.28;5036862;28;20406;-80
2023/12/19 07:25:28;;;;;;;;;;;;;;;2.26;68.38;100740.94;5040085;28;20375;-80
2023/12/19 07:27:53;;;;;;;;;;;;;;;2.28;68.88;100739.94;5034937;28;19952;-80
2023/12/19 07:30:18;;;;;;;;;;;;;;;2.31;68.64;100736.28;5059289;28;19969;-80
2023/12/19 07:32:44;;;;;;;;;;;;;;;2.34;68.37;100731.72;5055717;28;19913;-80
2023/12/19 07:35:09;;;;;;;;;;;;;;;2.38;68.86;100729.75;5040133;28;20279;-80
2023/12/19 07:37:36;;;;;;;;;;;;;;;2.45;68.86;100734.47;5043609;28;20381;-80
2023/12/19 07:40:01;;;;;;;;;;;;;;;2.50;68.51;100735.03;5058331;28;19920;-80
2023/12/19 07:42:27;;;;;;;;;;;;;;;2.51;68.94;100730.66;5045479;28;19913;-79
2023/12/19 07:44:52;;;;;;;;;;;;;;;2.52;68.53;100732.31;5038314;28;19924;-79
2023/12/19 07:47:17;;;;;;;;;;;;;;;2.55;68.47;100730.34;5039640;28;19921;-80
2023/12/19 07:49:42;;;;;;;;;;;;;;;2.65;68.79;100740.19;5039649;28;19924;-80
2023/12/19 07:52:08;;;;;;;;;;;;;;;2.73;68.51;100735.31;5039165;28;19913;-79
2023/12/19 07:54:33;;;;;;;;;;;;;;;2.80;68.58;100734.00;5038949;28;19923;-80
2023/12/19 07:56:58;;;;;;;;;;;;;;;2.84;68.12;100735.47;5044875;28;19913;-80
2023/12/19 07:59:23;;;;;;;;;;;;;;;2.87;68.58;100720.47;5060313;28;19920;-79
2023/12/19 08:01:49;;;;;;;;;;;;;;;2.96;68.62;100733.84;5045999;28;19920;-80
2023/12/19 08:04:14;;;;;;;;;;;;;;;3.00;68.40;100725.75;5041859;28;19956;-80
2023/12/19 08:06:41;;;;;;;;;;;;;;;3.04;68.05;100722.00;5043897;28;19921;-80
2023/12/19 08:09:10;;;;;;;;;;;;;;;3.07;68.23;100721.78;5048028;28;19917;-80
2023/12/19 08:11:35;;;;;;;;;;;;;;;3.15;68.41;100710.84;5061744;28;20290;-80
2023/12/19 08:14:01;;;;;;;;;;;;;;;3.23;68.10;100710.31;5042751;28;19912;-80
2023/12/19 08:16:26;;;;;;;;;;;;;;;3.28;68.33;100708.25;5038529;28;19971;-80
2023/12/19 08:18:51;;;;;;;;;;;;;;;3.33;68.13;100698.34;5036007;28;19921;-80
2023/12/19 08:21:18;;;;;;;;;;;;;;;3.38;67.73;100694.47;5040094;28;19923;-79
2023/12/19 08:23:45;;;;;;;;;;;;;;;3.44;68.07;100698.44;5039380;28;19956;-79
2023/12/19 08:26:10;;;;;;;;;;;;;;;3.48;68.20;100692.06;5036427;28;19924;-81
2023/12/19 08:28:35;;;;;;;;;;;;;;;3.54;67.81;100688.19;5039894;28;19917;-81
2023/12/19 08:31:03;;;;;;;;;;;;;;;3.59;67.92;100688.72;5039368;28;19917;-81
2023/12/19 08:33:28;;;;;;;;;;;;;;;3.62;68.13;100691.97;5023141;28;19917;-81
2023/12/19 08:35:53;;;;;;;;;;;;;;;3.68;68.07;100691.53;5040291;28;19955;-81
2023/12/19 08:38:19;;;;;;;;;;;;;;;3.74;68.04;100680.69;5036624;28;19975;-81
2023/12/19 08:40:45;;;;;;;;;;;;;;;3.80;68.06;100674.22;5020459;28;20306;-81
2023/12/19 08:43:10;;;;;;;;;;;;;;;3.86;67.98;100676.38;5037077;28;19909;-80
2023/12/19 08:45:36;;;;;;;;;;;;;;;3.90;67.95;100664.78;5034752;28;19943;-80
2023/12/19 08:48:03;;;;;;;;;;;;;;;3.96;68.02;100663.50;5032692;28;19932;-80
2023/12/19 08:50:28;;;;;;;;;;;;;;;4.02;68.16;100668.31;5049171;28;20322;-79
2023/12/19 08:52:54;;;;;;;;;;;;;;;4.08;67.97;100662.66;5043034;28;19916;-78
2023/12/19 08:55:20;;;;;;;;;;;;;;;4.15;67.95;100656.03;5034329;28;19967;-78
2023/12/19 08:57:45;;;;;;;;;;;;;;;4.21;67.85;100658.22;5045948;28;20312;-78
2023/12/19 09:00:18;;;;;;;;;;;;;;;4.28;67.61;100651.59;5034412;28;19988;-79
2023/12/19 09:02:44;;;;;;;;;;;;;;;4.34;67.60;100645.09;5036248;28;19913;-79
2023/12/19 09:05:10;;;;;;;;;;;;;;;4.37;67.75;100643.09;5030614;28;19917;-79
2023/12/19 09:07:35;;;;;;;;;;;;;;;4.41;68.02;100647.16;5033457;28;19917;-79
2023/12/19 09:10:01;;;;;;;;;;;;;;;4.48;67.97;100647.56;5035158;28;20382;-79
2023/12/19 09:12:26;;;;;;;;;;;;;;;4.54;68.00;100641.06;5027165;28;19917;-79
2023/12/19 09:14:51;;;;;;;;;;;;;;;4.61;67.91;100642.28;5034684;28;19921;-78
2023/12/19 09:17:17;;;;;;;;;;;;;;;4.67;67.46;100631.34;5017339;28;19917;-78
2023/12/19 09:19:42;;;;;;;;;;;;;;;4.72;68.24;100627.44;5034189;28;20003;-77
2023/12/19 09:22:07;;;;;;;;;;;;;;;4.79;68.00;100625.22;5034232;28;19913;-77
2023/12/19 09:24:32;;;;;;;;;;;;;;;4.85;68.08;100616.06;5018656;28;20429;-78
2023/12/19 09:26:58;;;;;;;;;;;;;;;4.89;68.04;100620.13;5033585;28;19921;-78
2023/12/19 09:29:25;;;;;;;;;;;;;;;4.95;67.97;100607.41;5033451;28;19971;-77
2023/12/19 09:31:51;;;;;;;;;;;;;;;5.02;67.62;100602.53;5033916;28;19917;-78
2023/12/19 09:34:16;;;;;;;;;;;;;;;5.08;67.83;100604.69;5016196;28;19967;-79
2023/12/19 09:36:42;;;;;;;;;;;;;;;5.15;67.60;100605.88;5034543;28;19949;-78
2023/12/19 09:39:07;;;;;;;;;;;;;;;5.23;67.23;100590.47;5034056;28;19921;-77
2023/12/19 09:41:32;;;;;;;;;;;;;;;5.31;67.29;100597.72;5033564;28;19917;-79
2023/12/19 09:43:58;;;;;;;;;;;;;;;5.38;67.56;100593.66;5033177;28;19963;-78
2023/12/19 09:46:24;;;;;;;;;;;;;;;5.42;67.35;100597.72;5031777;28;20365;-79
2023/12/19 09:48:49;;;;;;;;;;;;;;;5.48;66.87;100596.41;5034535;28;19921;-79
2023/12/19 09:51:35;;;;;;;;;;;;;;;5.55;66.81;100589.72;5036319;28;20340;-78
2023/12/19 09:54:01;;;;;;;;;;;;;;;5.62;67.42;100586.50;5035426;28;19920;-78
2023/12/19 09:56:27;;;;;;;;;;;;;;;5.70;66.65;100588.53;5033889;28;19913;-78
2023/12/19 09:58:53;;;;;;;;;;;;;;;5.76;67.10;100585.41;5039801;28;19998;-79
2023/12/19 10:01:18;;;;;;;;;;;;;;;5.84;66.69;100571.72;5052591;28;20397;-78
2023/12/19 10:03:44;;;;;;;;;;;;;;;5.92;66.55;100572.78;5033435;28;19948;-79
2023/12/19 10:06:09;;;;;;;;;;;;;;;5.98;66.31;100561.84;5032965;28;19971;-78
2023/12/19 10:08:40;;;;;;;;;;;;;;;6.07;66.21;100560.25;5033172;28;19913;-78
2023/12/19 10:11:07;;;;;;;;;;;;;;;6.12;66.62;100563.34;5033378;28;19917;-78
2023/12/19 10:13:35;;;;;;;;;;;;;;;6.18;66.46;100564.63;5028675;28;20326;-78
2023/12/19 10:16:00;;;;;;;;;;;;;;;6.25;65.77;100557.94;5032899;28;19913;-79
2023/12/19 10:18:25;;;;;;;;;;;;;;;6.31;66.24;100552.19;5028958;28;19923;-77
2023/12/19 10:21:02;;;;;;;;;;;;;;;6.36;66.16;100550.03;5033313;28;19913;-79
2023/12/19 10:23:27;;;;;;;;;;;;;;;6.40;65.06;100538.31;5033152;28;20383;-80
2023/12/19 10:25:52;;;;;;;;;;;;;;;6.48;65.92;100540.31;5029186;28;19927;-77
2023/12/19 10:28:18;;;;;;;;;;;;;;;6.55;64.36;100534.41;5030066;28;20360;-77
2023/12/19 10:30:43;;;;;;;;;;;;;;;6.62;63.89;100524.25;5032310;28;19923;-79
2023/12/19 10:33:08;;;;;;;;;;;;;;;6.70;64.71;100532.34;5025276;28;19924;-77
2023/12/19 10:35:40;;;;;;;;;;;;;;;6.75;64.81;100514.41;5034617;28;19923;-76
2023/12/19 10:38:06;;;;;;;;;;;;;;;6.81;64.11;100516.50;5031614;28;20380;-76
2023/12/19 10:40:32;;;;;;;;;;;;;;;6.86;64.28;100508.25;5032886;28;19913;-76
2023/12/19 10:42:58;;;;;;;;;;;;;;;6.88;64.44;100508.94;5031906;28;19913;-77
2023/12/19 10:45:24;;;;;;;;;;;;;;;6.93;64.77;100498.88;5033047;28;20008;-76
2023/12/19 10:47:49;;;;;;;;;;;;;;;6.95;64.00;100496.97;5029589;28;20017;-77
2023/12/19 10:50:15;;;;;;;;;;;;;;;6.96;64.34;100498.63;5031399;28;20000;-77
2023/12/19 10:52:43;;;;;;;;;;;;;;;6.97;63.73;100487.16;5045106;28;19923;-79
2023/12/19 10:55:11;;;;;;;;;;;;;;;6.97;64.21;100487.16;5051399;28;19912;-76
2023/12/19 10:57:37;;;;;;;;;;;;;;;6.97;64.56;100480.09;5028420;28;20432;-77
2023/12/19 11:00:17;;;;;;;;;;;;;;;6.99;64.23;100472.94;5030544;28;19951;-79
2023/12/19 11:02:50;;;;;;;;;;;;;;;6.98;64.57;100473.06;5029669;28;19917;-77
2023/12/19 11:05:27;;;;;;;;;;;;;;;6.97;64.54;100466.97;5037753;28;19929;-80
2023/12/19 11:07:57;;;;;;;;;;;;;;;6.98;63.60;100465.19;5030785;28;19925;-77
2023/12/19 11:10:24;;;;;;;;;;;;;;;7.01;63.79;100451.78;5040877;28;20410;-80
2023/12/19 11:12:51;;;;;;;;;;;;;;;7.03;63.34;100455.13;5031060;28;19924;-77
2023/12/19 11:15:16;;;;;;;;;;;;;;;7.05;63.33;100449.72;5036321;28;19924;-79
2023/12/19 11:17:54;;;;;;;;;;;;;;;7.04;63.17;100438.41;5028836;28;20007;-79
2023/12/19 11:20:23;;;;;;;;;;;;;;;7.04;63.18;100445.44;5037762;28;19979;-78
2023/12/19 11:22:54;;;;;;;;;;;;;;;7.02;63.48;100437.69;5030047;28;19921;-79
2023/12/19 11:25:33;;;;;;;;;;;;;;;7.02;63.28;100435.06;5026066;28;20464;-78
2023/12/19 11:28:03;;;;;;;;;;;;;;;7.02;63.84;100429.81;5029913;28;20291;-80
2023/12/19 11:30:32;;;;;;;;;;;;;;;7.02;63.57;100416.69;5023426;28;19917;-77
2023/12/19 11:32:57;;;;;;;;;;;;;;;7.03;63.56;100420.16;5031375;28;19917;-78
2023/12/19 11:35:26;;;;;;;;;;;;;;;7.04;63.51;100414.78;5031509;28;19971;-78
2023/12/19 11:38:11;;;;;;;;;;;;;;;7.06;63.21;100407.59;5030746;28;19921;-78
2023/12/19 11:40:47;;;;;;;;;;;;;;;7.08;63.07;100408.28;5028521;28;19917;-80
2023/12/19 11:43:27;;;;;;;;;;;;;;;7.10;63.02;100400.28;5032786;28;19967;-78
2023/12/19 11:45:53;;;;;;;;;;;;;;;5.41;62.92;100124.69;5028296;28;20005;-79
2023/12/19 11:48:37;;;;;;;;;;;;;;;7.13;63.40;100392.94;5032729;28;19913;-80
2023/12/19 11:51:11;;;;;;;;;;;;;;;7.17;63.15;100393.50;5027779;28;19928;-80
2023/12/19 11:53:38;;;;;;;;;;;;;;;7.20;62.89;100388.81;5030351;28;20058;-81
2023/12/19 11:56:05;;;;;;;;;;;;;;;7.24;62.37;100387.59;5032044;28;19960;-82
2023/12/19 11:58:31;;;;;;;;;;;;;;;7.28;63.06;100385.50;5032269;28;19917;-80
2023/12/19 12:01:00;;;;;;;;;;;;;;;7.30;62.68;100384.41;5039323;28;19913;-81
2023/12/19 12:03:25;;;;;;;;;;;;;;;7.30;62.62;100384.41;5025839;28;19945;-81
2023/12/19 12:05:51;;;;;;;;;;;;;;;7.31;62.25;100378.19;5031974;28;19967;-82
2023/12/19 12:08:16;;;;;;;;;;;;;;;7.30;62.94;100373.91;5041674;28;19939;-81
2023/12/19 12:10:43;;;;;;;;;;;;;;;7.33;63.06;100370.16;5051882;28;19996;-81
2023/12/19 12:13:08;;;;;;;;;;;;;;;7.35;62.67;100378.75;5039163;28;19917;-82
2023/12/19 12:15:33;;;;;;;;;;;;;;;7.36;62.41;100366.44;5036822;28;19917;-83
2023/12/19 12:18:06;;;;;;;;;;;;;;;7.38;62.72;100367.13;5038523;28;19909;-83
2023/12/19 12:20:33;;;;;;;;;;;;;;;7.37;63.42;100354.97;5030333;28;19971;-83
2023/12/19 12:22:58;;;;;;;;;;;;;;;7.35;62.57;100370.88;5030765;28;20298;-83
2023/12/19 12:25:24;;;;;;;;;;;;;;;7.33;62.88;100367.53;5050671;28;20042;-83
2023/12/19 12:27:55;;;;;;;;;;;;;;;7.32;63.15;100361.47;5041222;28;20282;-81
2023/12/19 12:30:21;;;;;;;;;;;;;;;7.32;63.70;100364.09;5027169;28;19991;-81
2023/12/19 12:32:47;;;;;;;;;;;;;;;7.34;63.74;100362.16;5031245;28;19913;-80
2023/12/19 12:35:35;;;;;;;;;;;;;;;7.35;64.04;100365.59;5031097;28;19932;-85
2023/12/19 12:38:01;;;;;;;;;;;;;;;7.34;63.61;100353.44;5038160;28;19982;-83
2023/12/19 12:40:27;;;;;;;;;;;;;;;7.35;64.15;100360.34;5038629;28;20007;-83
2023/12/19 12:43:13;;;;;;;;;;;;;;;7.35;63.71;100355.09;5034034;28;19924;-81